sensor_id;sensor_type;location;lat;lon;timestamp;P1;durP1;ratioP1;P2;durP2;ratioP2
12768;SDS011;6448;48.916;8.990;2023-11-19T00:00:44;1.50;;;1.40;;
12768;SDS011;6448;48.916;8.990;2023-11-19T00:01:45;1.40;;;1.30;;
12768;SDS011;6448;48.916;8.990;2023-11-19T00:02:47;1.40;;;1.30;;
12768;SDS011;6448;48.916;8.990;2023-11-19T00:03:48;1.42;;;1.33;;
12768;SDS011;6448;48.916;8.990;2023-11-19T00:04:50;2.00;;;1.40;;
12768;SDS011;6448;48.916;8.990;2023-11-19T00:05:51;1.40;;;1.30;;
12768;SDS011;6448;48.916;8.990;2023-11-19T00:06:52;1.30;;;1.20;;
12768;SDS011;6448;48.916;8.990;2023-11-19T00:07:53;1.45;;;1.20;;
12768;SDS011;6448;48.916;8.990;2023-11-19T00:08:55;1.30;;;1.20;;
12768;SDS011;6448;48.916;8.990;2023-11-19T00:09:56;1.30;;;1.20;;
12768;SDS011;6448;48.916;8.990;2023-11-19T00:10:58;1.30;;;1.20;;
12768;SDS011;6448;48.916;8.990;2023-11-19T00:12:01;1.27;;;1.17;;
12768;SDS011;6448;48.916;8.990;2023-11-19T00:13:02;1.40;;;1.30;;
12768;SDS011;6448;48.916;8.990;2023-11-19T00:14:03;1.48;;;1.38;;
12768;SDS011;6448;48.916;8.990;2023-11-19T00:15:08;1.43;;;1.33;;
12768;SDS011;6448;48.916;8.990;2023-11-19T00:16:12;1.65;;;1.30;;
12768;SDS011;6448;48.916;8.990;2023-11-19T00:17:13;1.30;;;1.20;;
12768;SDS011;6448;48.916;8.990;2023-11-19T00:18:14;1.58;;;1.48;;
12768;SDS011;6448;48.916;8.990;2023-11-19T00:19:16;1.48;;;1.38;;
12768;SDS011;6448;48.916;8.990;2023-11-19T00:20:17;1.50;;;1.40;;
12768;SDS011;6448;48.916;8.990;2023-11-19T00:21:18;1.63;;;1.52;;
12768;SDS011;6448;48.916;8.990;2023-11-19T00:22:20;1.70;;;1.60;;
12768;SDS011;6448;48.916;8.990;2023-11-19T00:23:22;1.58;;;1.48;;
12768;SDS011;6448;48.916;8.990;2023-11-19T00:24:24;1.67;;;1.58;;
12768;SDS011;6448;48.916;8.990;2023-11-19T00:25:25;2.10;;;1.50;;
12768;SDS011;6448;48.916;8.990;2023-11-19T00:26:28;1.73;;;1.63;;
12768;SDS011;6448;48.916;8.990;2023-11-19T00:27:30;1.70;;;1.60;;
12768;SDS011;6448;48.916;8.990;2023-11-19T00:28:32;1.70;;;1.60;;
12768;SDS011;6448;48.916;8.990;2023-11-19T00:29:33;1.97;;;1.80;;
12768;SDS011;6448;48.916;8.990;2023-11-19T00:30:36;1.60;;;1.50;;
12768;SDS011;6448;48.916;8.990;2023-11-19T00:31:37;1.60;;;1.50;;
12768;SDS011;6448;48.916;8.990;2023-11-19T00:32:38;1.90;;;1.77;;
12768;SDS011;6448;48.916;8.990;2023-11-19T00:33:39;1.77;;;1.67;;
12768;SDS011;6448;48.916;8.990;2023-11-19T00:34:43;1.70;;;1.60;;
12768;SDS011;6448;48.916;8.990;2023-11-19T00:35:44;1.90;;;1.80;;
12768;SDS011;6448;48.916;8.990;2023-11-19T00:36:46;1.60;;;1.50;;
12768;SDS011;6448;48.916;8.990;2023-11-19T00:37:47;2.22;;;1.73;;
12768;SDS011;6448;48.916;8.990;2023-11-19T00:38:50;1.70;;;1.60;;
12768;SDS011;6448;48.916;8.990;2023-11-19T00:39:50;1.70;;;1.60;;
12768;SDS011;6448;48.916;8.990;2023-11-19T00:40:52;1.80;;;1.70;;
12768;SDS011;6448;48.916;8.990;2023-11-19T00:41:54;1.60;;;1.50;;
12768;SDS011;6448;48.916;8.990;2023-11-19T00:42:56;1.50;;;1.40;;
12768;SDS011;6448;48.916;8.990;2023-11-19T00:43:57;1.60;;;1.50;;
12768;SDS011;6448;48.916;8.990;2023-11-19T00:44:58;1.70;;;1.50;;
12768;SDS011;6448;48.916;8.990;2023-11-19T00:46:01;1.85;;;1.55;;
12768;SDS011;6448;48.916;8.990;2023-11-19T00:47:05;1.60;;;1.50;;
12768;SDS011;6448;48.916;8.990;2023-11-19T00:48:05;1.55;;;1.45;;
12768;SDS011;6448;48.916;8.990;2023-11-19T00:49:08;1.48;;;1.38;;
12768;SDS011;6448;48.916;8.990;2023-11-19T00:50:09;1.40;;;1.30;;
12768;SDS011;6448;48.916;8.990;2023-11-19T00:51:11;1.50;;;1.40;;
12768;SDS011;6448;48.916;8.990;2023-11-19T00:52:13;1.60;;;1.50;;
12768;SDS011;6448;48.916;8.990;2023-11-19T00:53:14;1.65;;;1.40;;
12768;SDS011;6448;48.916;8.990;2023-11-19T00:54:15;1.40;;;1.30;;
12768;SDS011;6448;48.916;8.990;2023-11-19T00:55:16;1.50;;;1.40;;
12768;SDS011;6448;48.916;8.990;2023-11-19T00:56:17;1.40;;;1.30;;
12768;SDS011;6448;48.916;8.990;2023-11-19T00:57:21;1.40;;;1.30;;
12768;SDS011;6448;48.916;8.990;2023-11-19T00:58:21;1.65;;;1.30;;
12768;SDS011;6448;48.916;8.990;2023-11-19T00:59:23;1.40;;;1.30;;
12768;SDS011;6448;48.916;8.990;2023-11-19T01:00:24;1.50;;;1.40;;
12768;SDS011;6448;48.916;8.990;2023-11-19T01:01:27;1.50;;;1.40;;
12768;SDS011;6448;48.916;8.990;2023-11-19T01:02:28;1.25;;;1.15;;
12768;SDS011;6448;48.916;8.990;2023-11-19T01:03:30;1.60;;;1.50;;
12768;SDS011;6448;48.916;8.990;2023-11-19T01:04:33;1.52;;;1.42;;
12768;SDS011;6448;48.916;8.990;2023-11-19T01:05:36;1.50;;;1.33;;
12768;SDS011;6448;48.916;8.990;2023-11-19T01:06:37;1.40;;;1.30;;
12768;SDS011;6448;48.916;8.990;2023-11-19T01:07:38;1.40;;;1.30;;
12768;SDS011;6448;48.916;8.990;2023-11-19T01:08:39;1.80;;;1.30;;
12768;SDS011;6448;48.916;8.990;2023-11-19T01:09:42;1.40;;;1.30;;
12768;SDS011;6448;48.916;8.990;2023-11-19T01:10:43;1.40;;;1.30;;
12768;SDS011;6448;48.916;8.990;2023-11-19T01:11:45;1.40;;;1.30;;
12768;SDS011;6448;48.916;8.990;2023-11-19T01:12:47;1.40;;;1.30;;
12768;SDS011;6448;48.916;8.990;2023-11-19T01:13:49;1.50;;;1.40;;
12768;SDS011;6448;48.916;8.990;2023-11-19T01:14:51;1.30;;;1.20;;
12768;SDS011;6448;48.916;8.990;2023-11-19T01:15:52;1.38;;;1.27;;
12768;SDS011;6448;48.916;8.990;2023-11-19T01:16:53;1.47;;;1.37;;
12768;SDS011;6448;48.916;8.990;2023-11-19T01:17:55;1.40;;;1.30;;
12768;SDS011;6448;48.916;8.990;2023-11-19T01:18:56;1.40;;;1.30;;
12768;SDS011;6448;48.916;8.990;2023-11-19T01:19:58;1.60;;;1.50;;
12768;SDS011;6448;48.916;8.990;2023-11-19T01:20:59;1.50;;;1.40;;
12768;SDS011;6448;48.916;8.990;2023-11-19T01:22:00;1.50;;;1.40;;
12768;SDS011;6448;48.916;8.990;2023-11-19T01:23:01;1.50;;;1.40;;
12768;SDS011;6448;48.916;8.990;2023-11-19T01:24:04;1.50;;;1.40;;
12768;SDS011;6448;48.916;8.990;2023-11-19T01:25:09;1.42;;;1.33;;
12768;SDS011;6448;48.916;8.990;2023-11-19T01:26:11;1.50;;;1.38;;
12768;SDS011;6448;48.916;8.990;2023-11-19T01:27:12;1.53;;;1.43;;
12768;SDS011;6448;48.916;8.990;2023-11-19T01:28:15;1.40;;;1.30;;
12768;SDS011;6448;48.916;8.990;2023-11-19T01:29:17;1.30;;;1.20;;
12768;SDS011;6448;48.916;8.990;2023-11-19T01:30:20;1.58;;;1.33;;
12768;SDS011;6448;48.916;8.990;2023-11-19T01:31:23;1.50;;;1.40;;
12768;SDS011;6448;48.916;8.990;2023-11-19T01:32:25;1.42;;;1.33;;
12768;SDS011;6448;48.916;8.990;2023-11-19T01:33:25;1.42;;;1.33;;
12768;SDS011;6448;48.916;8.990;2023-11-19T01:34:28;1.37;;;1.27;;
12768;SDS011;6448;48.916;8.990;2023-11-19T01:35:29;1.45;;;1.35;;
12768;SDS011;6448;48.916;8.990;2023-11-19T01:36:30;1.50;;;1.40;;
12768;SDS011;6448;48.916;8.990;2023-11-19T01:37:32;1.77;;;1.50;;
12768;SDS011;6448;48.916;8.990;2023-11-19T01:38:34;1.42;;;1.33;;
12768;SDS011;6448;48.916;8.990;2023-11-19T01:39:38;1.40;;;1.30;;
12768;SDS011;6448;48.916;8.990;2023-11-19T01:40:39;1.63;;;1.52;;
12768;SDS011;6448;48.916;8.990;2023-11-19T01:41:39;1.60;;;1.50;;
12768;SDS011;6448;48.916;8.990;2023-11-19T01:42:41;1.40;;;1.30;;
12768;SDS011;6448;48.916;8.990;2023-11-19T01:43:43;1.60;;;1.50;;
12768;SDS011;6448;48.916;8.990;2023-11-19T01:44:54;1.40;;;1.30;;
12768;SDS011;6448;48.916;8.990;2023-11-19T01:45:57;1.70;;;1.60;;
12768;SDS011;6448;48.916;8.990;2023-11-19T01:46:58;1.50;;;1.40;;
12768;SDS011;6448;48.916;8.990;2023-11-19T01:48:02;1.60;;;1.50;;
12768;SDS011;6448;48.916;8.990;2023-11-19T01:49:04;1.50;;;1.40;;
12768;SDS011;6448;48.916;8.990;2023-11-19T01:50:06;1.60;;;1.50;;
12768;SDS011;6448;48.916;8.990;2023-11-19T01:51:08;1.50;;;1.40;;
12768;SDS011;6448;48.916;8.990;2023-11-19T01:52:10;1.50;;;1.40;;
12768;SDS011;6448;48.916;8.990;2023-11-19T01:53:11;1.65;;;1.55;;
12768;SDS011;6448;48.916;8.990;2023-11-19T01:54:13;1.63;;;1.52;;
12768;SDS011;6448;48.916;8.990;2023-11-19T01:55:15;1.52;;;1.38;;
12768;SDS011;6448;48.916;8.990;2023-11-19T01:56:17;1.60;;;1.50;;
12768;SDS011;6448;48.916;8.990;2023-11-19T01:57:18;1.40;;;1.30;;
12768;SDS011;6448;48.916;8.990;2023-11-19T01:58:21;1.70;;;1.42;;
12768;SDS011;6448;48.916;8.990;2023-11-19T01:59:24;1.52;;;1.42;;
12768;SDS011;6448;48.916;8.990;2023-11-19T02:00:27;1.40;;;1.30;;
12768;SDS011;6448;48.916;8.990;2023-11-19T02:01:28;1.40;;;1.30;;
12768;SDS011;6448;48.916;8.990;2023-11-19T02:02:32;1.35;;;1.25;;
12768;SDS011;6448;48.916;8.990;2023-11-19T02:03:34;1.30;;;1.20;;
12768;SDS011;6448;48.916;8.990;2023-11-19T02:04:35;1.40;;;1.30;;
12768;SDS011;6448;48.916;8.990;2023-11-19T02:05:38;1.40;;;1.30;;
12768;SDS011;6448;48.916;8.990;2023-11-19T02:06:40;1.50;;;1.40;;
12768;SDS011;6448;48.916;8.990;2023-11-19T02:07:43;1.50;;;1.40;;
12768;SDS011;6448;48.916;8.990;2023-11-19T02:08:46;1.50;;;1.40;;
12768;SDS011;6448;48.916;8.990;2023-11-19T02:09:47;1.48;;;1.38;;
12768;SDS011;6448;48.916;8.990;2023-11-19T02:10:49;1.58;;;1.48;;
12768;SDS011;6448;48.916;8.990;2023-11-19T02:11:49;1.50;;;1.40;;
12768;SDS011;6448;48.916;8.990;2023-11-19T02:12:51;1.50;;;1.40;;
12768;SDS011;6448;48.916;8.990;2023-11-19T02:13:52;1.50;;;1.40;;
12768;SDS011;6448;48.916;8.990;2023-11-19T02:14:55;1.50;;;1.40;;
12768;SDS011;6448;48.916;8.990;2023-11-19T02:15:59;1.75;;;1.48;;
12768;SDS011;6448;48.916;8.990;2023-11-19T02:17:02;1.52;;;1.30;;
12768;SDS011;6448;48.916;8.990;2023-11-19T02:18:18;1.55;;;1.45;;
12768;SDS011;6448;48.916;8.990;2023-11-19T02:19:21;1.67;;;1.50;;
12768;SDS011;6448;48.916;8.990;2023-11-19T02:20:22;1.50;;;1.40;;
12768;SDS011;6448;48.916;8.990;2023-11-19T02:21:24;1.50;;;1.40;;
12768;SDS011;6448;48.916;8.990;2023-11-19T02:22:26;1.60;;;1.50;;
12768;SDS011;6448;48.916;8.990;2023-11-19T02:23:27;1.50;;;1.40;;
12768;SDS011;6448;48.916;8.990;2023-11-19T02:24:28;1.70;;;1.60;;
12768;SDS011;6448;48.916;8.990;2023-11-19T02:25:33;1.60;;;1.50;;
12768;SDS011;6448;48.916;8.990;2023-11-19T02:26:37;1.60;;;1.50;;
12768;SDS011;6448;48.916;8.990;2023-11-19T02:27:51;1.52;;;1.42;;
12768;SDS011;6448;48.916;8.990;2023-11-19T02:28:55;1.60;;;1.50;;
12768;SDS011;6448;48.916;8.990;2023-11-19T02:29:57;1.60;;;1.50;;
12768;SDS011;6448;48.916;8.990;2023-11-19T02:30:58;1.70;;;1.60;;
12768;SDS011;6448;48.916;8.990;2023-11-19T02:32:01;1.60;;;1.50;;
12768;SDS011;6448;48.916;8.990;2023-11-19T02:33:02;1.63;;;1.52;;
12768;SDS011;6448;48.916;8.990;2023-11-19T02:34:05;1.70;;;1.60;;
12768;SDS011;6448;48.916;8.990;2023-11-19T02:35:07;1.67;;;1.58;;
12768;SDS011;6448;48.916;8.990;2023-11-19T02:36:09;1.63;;;1.52;;
12768;SDS011;6448;48.916;8.990;2023-11-19T02:37:10;1.60;;;1.48;;
12768;SDS011;6448;48.916;8.990;2023-11-19T02:38:12;1.67;;;1.58;;
12768;SDS011;6448;48.916;8.990;2023-11-19T02:39:14;1.52;;;1.42;;
12768;SDS011;6448;48.916;8.990;2023-11-19T02:40:21;1.50;;;1.40;;
12768;SDS011;6448;48.916;8.990;2023-11-19T02:41:24;1.60;;;1.50;;
12768;SDS011;6448;48.916;8.990;2023-11-19T02:42:25;1.83;;;1.73;;
12768;SDS011;6448;48.916;8.990;2023-11-19T02:43:29;1.70;;;1.60;;
12768;SDS011;6448;48.916;8.990;2023-11-19T02:44:33;1.63;;;1.52;;
12768;SDS011;6448;48.916;8.990;2023-11-19T02:45:34;1.60;;;1.50;;
12768;SDS011;6448;48.916;8.990;2023-11-19T02:46:35;1.70;;;1.60;;
12768;SDS011;6448;48.916;8.990;2023-11-19T02:47:37;1.65;;;1.55;;
12768;SDS011;6448;48.916;8.990;2023-11-19T02:48:38;1.58;;;1.48;;
12768;SDS011;6448;48.916;8.990;2023-11-19T02:49:40;1.70;;;1.60;;
12768;SDS011;6448;48.916;8.990;2023-11-19T02:50:43;1.70;;;1.60;;
12768;SDS011;6448;48.916;8.990;2023-11-19T02:51:44;1.73;;;1.63;;
12768;SDS011;6448;48.916;8.990;2023-11-19T02:52:45;1.83;;;1.73;;
12768;SDS011;6448;48.916;8.990;2023-11-19T02:53:46;1.70;;;1.60;;
12768;SDS011;6448;48.916;8.990;2023-11-19T02:54:48;1.80;;;1.70;;
12768;SDS011;6448;48.916;8.990;2023-11-19T02:55:49;1.70;;;1.60;;
12768;SDS011;6448;48.916;8.990;2023-11-19T02:56:51;1.77;;;1.67;;
12768;SDS011;6448;48.916;8.990;2023-11-19T02:57:55;1.80;;;1.70;;
12768;SDS011;6448;48.916;8.990;2023-11-19T02:59:00;1.80;;;1.70;;
12768;SDS011;6448;48.916;8.990;2023-11-19T03:00:07;1.77;;;1.67;;
12768;SDS011;6448;48.916;8.990;2023-11-19T03:01:12;1.60;;;1.50;;
12768;SDS011;6448;48.916;8.990;2023-11-19T03:02:23;1.77;;;1.67;;
12768;SDS011;6448;48.916;8.990;2023-11-19T03:03:26;1.73;;;1.63;;
12768;SDS011;6448;48.916;8.990;2023-11-19T03:04:38;1.90;;;1.80;;
12768;SDS011;6448;48.916;8.990;2023-11-19T03:05:39;1.83;;;1.73;;
12768;SDS011;6448;48.916;8.990;2023-11-19T03:06:41;1.90;;;1.80;;
12768;SDS011;6448;48.916;8.990;2023-11-19T03:07:42;1.70;;;1.60;;
12768;SDS011;6448;48.916;8.990;2023-11-19T03:08:44;1.80;;;1.70;;
12768;SDS011;6448;48.916;8.990;2023-11-19T03:09:45;1.83;;;1.73;;
12768;SDS011;6448;48.916;8.990;2023-11-19T03:10:47;2.00;;;1.90;;
12768;SDS011;6448;48.916;8.990;2023-11-19T03:11:48;1.80;;;1.70;;
12768;SDS011;6448;48.916;8.990;2023-11-19T03:12:51;1.70;;;1.60;;
12768;SDS011;6448;48.916;8.990;2023-11-19T03:13:52;1.70;;;1.60;;
12768;SDS011;6448;48.916;8.990;2023-11-19T03:14:54;1.90;;;1.80;;
12768;SDS011;6448;48.916;8.990;2023-11-19T03:15:56;1.60;;;1.50;;
12768;SDS011;6448;48.916;8.990;2023-11-19T03:16:56;1.92;;;1.83;;
12768;SDS011;6448;48.916;8.990;2023-11-19T03:17:58;1.80;;;1.70;;
12768;SDS011;6448;48.916;8.990;2023-11-19T03:18:59;1.70;;;1.60;;
12768;SDS011;6448;48.916;8.990;2023-11-19T03:20:01;1.90;;;1.70;;
12768;SDS011;6448;48.916;8.990;2023-11-19T03:21:03;1.80;;;1.70;;
12768;SDS011;6448;48.916;8.990;2023-11-19T03:22:05;1.70;;;1.60;;
12768;SDS011;6448;48.916;8.990;2023-11-19T03:23:07;1.67;;;1.58;;
12768;SDS011;6448;48.916;8.990;2023-11-19T03:24:09;1.60;;;1.50;;
12768;SDS011;6448;48.916;8.990;2023-11-19T03:25:10;1.42;;;1.33;;
12768;SDS011;6448;48.916;8.990;2023-11-19T03:26:11;1.50;;;1.40;;
12768;SDS011;6448;48.916;8.990;2023-11-19T03:27:13;1.50;;;1.40;;
12768;SDS011;6448;48.916;8.990;2023-11-19T03:28:14;1.40;;;1.30;;
12768;SDS011;6448;48.916;8.990;2023-11-19T03:29:16;1.45;;;1.35;;
12768;SDS011;6448;48.916;8.990;2023-11-19T03:30:18;1.60;;;1.50;;
12768;SDS011;6448;48.916;8.990;2023-11-19T03:31:21;1.55;;;1.45;;
12768;SDS011;6448;48.916;8.990;2023-11-19T03:32:22;1.50;;;1.40;;
12768;SDS011;6448;48.916;8.990;2023-11-19T03:33:23;1.75;;;1.65;;
12768;SDS011;6448;48.916;8.990;2023-11-19T03:34:25;1.52;;;1.42;;
12768;SDS011;6448;48.916;8.990;2023-11-19T03:35:26;1.60;;;1.50;;
12768;SDS011;6448;48.916;8.990;2023-11-19T03:36:31;1.73;;;1.63;;
12768;SDS011;6448;48.916;8.990;2023-11-19T03:37:33;1.63;;;1.52;;
12768;SDS011;6448;48.916;8.990;2023-11-19T03:38:33;2.10;;;1.85;;
12768;SDS011;6448;48.916;8.990;2023-11-19T03:39:35;1.70;;;1.60;;
12768;SDS011;6448;48.916;8.990;2023-11-19T03:40:36;1.80;;;1.70;;
12768;SDS011;6448;48.916;8.990;2023-11-19T03:41:37;1.90;;;1.80;;
12768;SDS011;6448;48.916;8.990;2023-11-19T03:42:40;1.67;;;1.58;;
12768;SDS011;6448;48.916;8.990;2023-11-19T03:43:40;1.90;;;1.80;;
12768;SDS011;6448;48.916;8.990;2023-11-19T03:44:42;1.70;;;1.60;;
12768;SDS011;6448;48.916;8.990;2023-11-19T03:45:44;1.77;;;1.67;;
12768;SDS011;6448;48.916;8.990;2023-11-19T03:46:47;1.80;;;1.70;;
12768;SDS011;6448;48.916;8.990;2023-11-19T03:47:47;1.90;;;1.80;;
12768;SDS011;6448;48.916;8.990;2023-11-19T03:48:50;1.75;;;1.65;;
12768;SDS011;6448;48.916;8.990;2023-11-19T03:49:51;1.85;;;1.75;;
12768;SDS011;6448;48.916;8.990;2023-11-19T03:50:52;1.75;;;1.65;;
12768;SDS011;6448;48.916;8.990;2023-11-19T03:51:54;1.83;;;1.73;;
12768;SDS011;6448;48.916;8.990;2023-11-19T03:52:55;1.80;;;1.70;;
12768;SDS011;6448;48.916;8.990;2023-11-19T03:53:57;1.90;;;1.80;;
12768;SDS011;6448;48.916;8.990;2023-11-19T03:54:59;1.90;;;1.80;;
12768;SDS011;6448;48.916;8.990;2023-11-19T03:56:00;1.83;;;1.73;;
12768;SDS011;6448;48.916;8.990;2023-11-19T03:57:02;1.95;;;1.85;;
12768;SDS011;6448;48.916;8.990;2023-11-19T03:58:04;2.10;;;1.70;;
12768;SDS011;6448;48.916;8.990;2023-11-19T03:59:05;1.80;;;1.70;;
12768;SDS011;6448;48.916;8.990;2023-11-19T04:00:07;1.70;;;1.60;;
12768;SDS011;6448;48.916;8.990;2023-11-19T04:01:14;1.90;;;1.80;;
12768;SDS011;6448;48.916;8.990;2023-11-19T04:02:15;1.80;;;1.70;;
12768;SDS011;6448;48.916;8.990;2023-11-19T04:03:17;2.00;;;1.90;;
12768;SDS011;6448;48.916;8.990;2023-11-19T04:04:19;2.10;;;2.00;;
12768;SDS011;6448;48.916;8.990;2023-11-19T04:05:21;1.80;;;1.70;;
12768;SDS011;6448;48.916;8.990;2023-11-19T04:06:22;1.80;;;1.70;;
12768;SDS011;6448;48.916;8.990;2023-11-19T04:07:23;2.03;;;1.92;;
12768;SDS011;6448;48.916;8.990;2023-11-19T04:08:24;1.90;;;1.80;;
12768;SDS011;6448;48.916;8.990;2023-11-19T04:09:26;1.90;;;1.80;;
12768;SDS011;6448;48.916;8.990;2023-11-19T04:10:27;1.80;;;1.70;;
12768;SDS011;6448;48.916;8.990;2023-11-19T04:11:28;1.90;;;1.80;;
12768;SDS011;6448;48.916;8.990;2023-11-19T04:12:30;1.80;;;1.70;;
12768;SDS011;6448;48.916;8.990;2023-11-19T04:13:30;1.90;;;1.80;;
12768;SDS011;6448;48.916;8.990;2023-11-19T04:14:32;2.20;;;2.05;;
12768;SDS011;6448;48.916;8.990;2023-11-19T04:15:33;1.92;;;1.83;;
12768;SDS011;6448;48.916;8.990;2023-11-19T04:16:36;1.85;;;1.75;;
12768;SDS011;6448;48.916;8.990;2023-11-19T04:17:37;2.10;;;2.00;;
12768;SDS011;6448;48.916;8.990;2023-11-19T04:18:39;2.00;;;1.80;;
12768;SDS011;6448;48.916;8.990;2023-11-19T04:19:39;2.00;;;1.90;;
12768;SDS011;6448;48.916;8.990;2023-11-19T04:20:41;1.80;;;1.70;;
12768;SDS011;6448;48.916;8.990;2023-11-19T04:21:43;1.95;;;1.85;;
12768;SDS011;6448;48.916;8.990;2023-11-19T04:22:44;1.92;;;1.83;;
12768;SDS011;6448;48.916;8.990;2023-11-19T04:23:44;2.10;;;2.00;;
12768;SDS011;6448;48.916;8.990;2023-11-19T04:24:46;2.08;;;1.98;;
12768;SDS011;6448;48.916;8.990;2023-11-19T04:25:47;2.30;;;2.10;;
12768;SDS011;6448;48.916;8.990;2023-11-19T04:26:49;2.03;;;1.92;;
12768;SDS011;6448;48.916;8.990;2023-11-19T04:27:49;2.20;;;2.00;;
12768;SDS011;6448;48.916;8.990;2023-11-19T04:28:52;2.22;;;2.10;;
12768;SDS011;6448;48.916;8.990;2023-11-19T04:29:54;2.10;;;2.00;;
12768;SDS011;6448;48.916;8.990;2023-11-19T04:30:56;2.25;;;2.15;;
12768;SDS011;6448;48.916;8.990;2023-11-19T04:32:00;2.00;;;1.90;;
12768;SDS011;6448;48.916;8.990;2023-11-19T04:33:01;2.00;;;1.90;;
12768;SDS011;6448;48.916;8.990;2023-11-19T04:34:03;1.85;;;1.75;;
12768;SDS011;6448;48.916;8.990;2023-11-19T04:35:05;1.95;;;1.85;;
12768;SDS011;6448;48.916;8.990;2023-11-19T04:36:08;2.30;;;2.10;;
12768;SDS011;6448;48.916;8.990;2023-11-19T04:37:09;1.90;;;1.80;;
12768;SDS011;6448;48.916;8.990;2023-11-19T04:38:11;1.70;;;1.60;;
12768;SDS011;6448;48.916;8.990;2023-11-19T04:39:12;1.60;;;1.50;;
12768;SDS011;6448;48.916;8.990;2023-11-19T04:40:15;1.55;;;1.45;;
12768;SDS011;6448;48.916;8.990;2023-11-19T04:41:18;1.60;;;1.50;;
12768;SDS011;6448;48.916;8.990;2023-11-19T04:42:21;1.50;;;1.40;;
12768;SDS011;6448;48.916;8.990;2023-11-19T04:43:23;1.77;;;1.67;;
12768;SDS011;6448;48.916;8.990;2023-11-19T04:44:24;1.60;;;1.50;;
12768;SDS011;6448;48.916;8.990;2023-11-19T04:45:25;1.80;;;1.70;;
12768;SDS011;6448;48.916;8.990;2023-11-19T04:46:26;2.23;;;2.13;;
12768;SDS011;6448;48.916;8.990;2023-11-19T04:47:29;2.05;;;1.95;;
12768;SDS011;6448;48.916;8.990;2023-11-19T04:48:30;2.10;;;2.00;;
12768;SDS011;6448;48.916;8.990;2023-11-19T04:49:32;1.80;;;1.70;;
12768;SDS011;6448;48.916;8.990;2023-11-19T04:50:33;1.70;;;1.60;;
12768;SDS011;6448;48.916;8.990;2023-11-19T04:51:37;1.60;;;1.50;;
12768;SDS011;6448;48.916;8.990;2023-11-19T04:52:38;1.60;;;1.50;;
12768;SDS011;6448;48.916;8.990;2023-11-19T04:53:42;1.30;;;1.20;;
12768;SDS011;6448;48.916;8.990;2023-11-19T04:54:43;1.30;;;1.20;;
12768;SDS011;6448;48.916;8.990;2023-11-19T04:55:45;1.20;;;1.10;;
12768;SDS011;6448;48.916;8.990;2023-11-19T04:56:45;1.27;;;1.17;;
12768;SDS011;6448;48.916;8.990;2023-11-19T04:57:47;0.80;;;0.80;;
12768;SDS011;6448;48.916;8.990;2023-11-19T04:58:48;0.60;;;0.60;;
12768;SDS011;6448;48.916;8.990;2023-11-19T04:59:49;0.60;;;0.40;;
12768;SDS011;6448;48.916;8.990;2023-11-19T05:00:51;0.40;;;0.40;;
12768;SDS011;6448;48.916;8.990;2023-11-19T05:01:51;0.40;;;0.40;;
12768;SDS011;6448;48.916;8.990;2023-11-19T05:02:54;0.30;;;0.30;;
12768;SDS011;6448;48.916;8.990;2023-11-19T05:03:56;0.20;;;0.20;;
12768;SDS011;6448;48.916;8.990;2023-11-19T05:04:59;0.60;;;0.38;;
12768;SDS011;6448;48.916;8.990;2023-11-19T05:06:01;0.30;;;0.30;;
12768;SDS011;6448;48.916;8.990;2023-11-19T05:07:01;0.30;;;0.30;;
12768;SDS011;6448;48.916;8.990;2023-11-19T05:08:03;0.45;;;0.30;;
12768;SDS011;6448;48.916;8.990;2023-11-19T05:09:05;0.20;;;0.20;;
12768;SDS011;6448;48.916;8.990;2023-11-19T05:10:08;0.40;;;0.30;;
12768;SDS011;6448;48.916;8.990;2023-11-19T05:11:09;0.30;;;0.30;;
12768;SDS011;6448;48.916;8.990;2023-11-19T05:12:12;0.30;;;0.30;;
12768;SDS011;6448;48.916;8.990;2023-11-19T05:13:12;0.30;;;0.30;;
12768;SDS011;6448;48.916;8.990;2023-11-19T05:14:15;0.50;;;0.30;;
12768;SDS011;6448;48.916;8.990;2023-11-19T05:15:16;0.35;;;0.35;;
12768;SDS011;6448;48.916;8.990;2023-11-19T05:16:17;0.30;;;0.30;;
12768;SDS011;6448;48.916;8.990;2023-11-19T05:17:20;0.32;;;0.32;;
12768;SDS011;6448;48.916;8.990;2023-11-19T05:18:23;0.30;;;0.30;;
12768;SDS011;6448;48.916;8.990;2023-11-19T05:19:24;0.40;;;0.30;;
12768;SDS011;6448;48.916;8.990;2023-11-19T05:20:25;0.40;;;0.40;;
12768;SDS011;6448;48.916;8.990;2023-11-19T05:21:27;0.30;;;0.30;;
12768;SDS011;6448;48.916;8.990;2023-11-19T05:22:28;0.40;;;0.40;;
12768;SDS011;6448;48.916;8.990;2023-11-19T05:23:29;0.30;;;0.30;;
12768;SDS011;6448;48.916;8.990;2023-11-19T05:24:31;0.40;;;0.40;;
12768;SDS011;6448;48.916;8.990;2023-11-19T05:25:32;0.20;;;0.20;;
12768;SDS011;6448;48.916;8.990;2023-11-19T05:26:33;0.30;;;0.30;;
12768;SDS011;6448;48.916;8.990;2023-11-19T05:27:35;0.40;;;0.40;;
12768;SDS011;6448;48.916;8.990;2023-11-19T05:28:37;0.40;;;0.40;;
12768;SDS011;6448;48.916;8.990;2023-11-19T05:29:39;0.30;;;0.30;;
12768;SDS011;6448;48.916;8.990;2023-11-19T05:30:41;0.30;;;0.30;;
12768;SDS011;6448;48.916;8.990;2023-11-19T05:31:43;0.30;;;0.30;;
12768;SDS011;6448;48.916;8.990;2023-11-19T05:32:44;0.43;;;0.43;;
12768;SDS011;6448;48.916;8.990;2023-11-19T05:33:47;0.30;;;0.30;;
12768;SDS011;6448;48.916;8.990;2023-11-19T05:34:48;0.22;;;0.22;;
12768;SDS011;6448;48.916;8.990;2023-11-19T05:35:49;0.20;;;0.20;;
12768;SDS011;6448;48.916;8.990;2023-11-19T05:36:51;0.35;;;0.35;;
12768;SDS011;6448;48.916;8.990;2023-11-19T05:37:52;0.40;;;0.40;;
12768;SDS011;6448;48.916;8.990;2023-11-19T05:38:53;0.35;;;0.35;;
12768;SDS011;6448;48.916;8.990;2023-11-19T05:39:55;0.40;;;0.40;;
12768;SDS011;6448;48.916;8.990;2023-11-19T05:40:56;0.40;;;0.40;;
12768;SDS011;6448;48.916;8.990;2023-11-19T05:41:58;0.40;;;0.40;;
12768;SDS011;6448;48.916;8.990;2023-11-19T05:42:59;0.40;;;0.40;;
12768;SDS011;6448;48.916;8.990;2023-11-19T05:44:00;0.30;;;0.30;;
12768;SDS011;6448;48.916;8.990;2023-11-19T05:45:01;0.40;;;0.40;;
12768;SDS011;6448;48.916;8.990;2023-11-19T05:46:03;0.35;;;0.35;;
12768;SDS011;6448;48.916;8.990;2023-11-19T05:47:04;0.30;;;0.30;;
12768;SDS011;6448;48.916;8.990;2023-11-19T05:48:07;0.50;;;0.50;;
12768;SDS011;6448;48.916;8.990;2023-11-19T05:49:11;0.80;;;0.40;;
12768;SDS011;6448;48.916;8.990;2023-11-19T05:50:13;0.40;;;0.40;;
12768;SDS011;6448;48.916;8.990;2023-11-19T05:51:14;0.60;;;0.40;;
12768;SDS011;6448;48.916;8.990;2023-11-19T05:52:16;0.40;;;0.40;;
12768;SDS011;6448;48.916;8.990;2023-11-19T05:53:17;0.55;;;0.50;;
12768;SDS011;6448;48.916;8.990;2023-11-19T05:54:18;0.50;;;0.50;;
12768;SDS011;6448;48.916;8.990;2023-11-19T05:55:21;0.50;;;0.50;;
12768;SDS011;6448;48.916;8.990;2023-11-19T05:56:23;1.00;;;0.90;;
12768;SDS011;6448;48.916;8.990;2023-11-19T05:57:26;0.90;;;0.90;;
12768;SDS011;6448;48.916;8.990;2023-11-19T05:58:29;0.70;;;0.70;;
12768;SDS011;6448;48.916;8.990;2023-11-19T05:59:32;0.73;;;0.70;;
12768;SDS011;6448;48.916;8.990;2023-11-19T06:00:33;0.50;;;0.50;;
12768;SDS011;6448;48.916;8.990;2023-11-19T06:01:35;0.50;;;0.50;;
12768;SDS011;6448;48.916;8.990;2023-11-19T06:02:36;0.52;;;0.50;;
12768;SDS011;6448;48.916;8.990;2023-11-19T06:03:38;0.43;;;0.43;;
12768;SDS011;6448;48.916;8.990;2023-11-19T06:04:40;0.50;;;0.50;;
12768;SDS011;6448;48.916;8.990;2023-11-19T06:05:44;0.73;;;0.60;;
12768;SDS011;6448;48.916;8.990;2023-11-19T06:06:46;0.70;;;0.70;;
12768;SDS011;6448;48.916;8.990;2023-11-19T06:07:47;0.50;;;0.50;;
12768;SDS011;6448;48.916;8.990;2023-11-19T06:08:47;0.60;;;0.60;;
12768;SDS011;6448;48.916;8.990;2023-11-19T06:09:50;0.75;;;0.70;;
12768;SDS011;6448;48.916;8.990;2023-11-19T06:10:52;0.70;;;0.60;;
12768;SDS011;6448;48.916;8.990;2023-11-19T06:11:53;0.60;;;0.60;;
12768;SDS011;6448;48.916;8.990;2023-11-19T06:12:57;0.47;;;0.40;;
12768;SDS011;6448;48.916;8.990;2023-11-19T06:13:59;0.40;;;0.40;;
12768;SDS011;6448;48.916;8.990;2023-11-19T06:15:00;0.50;;;0.50;;
12768;SDS011;6448;48.916;8.990;2023-11-19T06:16:01;0.50;;;0.50;;
12768;SDS011;6448;48.916;8.990;2023-11-19T06:17:03;0.50;;;0.50;;
12768;SDS011;6448;48.916;8.990;2023-11-19T06:18:05;0.68;;;0.55;;
12768;SDS011;6448;48.916;8.990;2023-11-19T06:19:06;0.90;;;0.50;;